sensor_id;sensor_type;location;lat;lon;timestamp;P1;durP1;ratioP1;P2;durP2;ratioP2
44850;SDS011;30583;48.714;9.386;2022-08-11T00:00:55;3.83;;;1.92;;
44850;SDS011;30583;48.714;9.386;2022-08-11T00:03:22;3.95;;;1.90;;
44850;SDS011;30583;48.714;9.386;2022-08-11T00:05:53;3.58;;;1.77;;
44850;SDS011;30583;48.714;9.386;2022-08-11T00:08:21;4.35;;;2.30;;
44850;SDS011;30583;48.714;9.386;2022-08-11T00:11:01;4.85;;;2.00;;
44850;SDS011;30583;48.714;9.386;2022-08-11T00:13:31;5.50;;;2.05;;
44850;SDS011;30583;48.714;9.386;2022-08-11T00:15:57;4.75;;;1.90;;
44850;SDS011;30583;48.714;9.386;2022-08-11T00:18:23;4.90;;;2.10;;
44850;SDS011;30583;48.714;9.386;2022-08-11T00:20:49;3.17;;;1.83;;
44850;SDS011;30583;48.714;9.386;2022-08-11T00:23:17;3.80;;;2.03;;
44850;SDS011;30583;48.714;9.386;2022-08-11T00:25:44;4.93;;;2.15;;
44850;SDS011;30583;48.714;9.386;2022-08-11T00:30:51;3.90;;;1.95;;
44850;SDS011;30583;48.714;9.386;2022-08-11T00:33:18;4.40;;;1.95;;
44850;SDS011;30583;48.714;9.386;2022-08-11T00:35:46;4.70;;;1.90;;
44850;SDS011;30583;48.714;9.386;2022-08-11T00:38:14;5.32;;;2.08;;
44850;SDS011;30583;48.714;9.386;2022-08-11T00:40:43;4.43;;;2.00;;
44850;SDS011;30583;48.714;9.386;2022-08-11T01:00:03;3.53;;;2.22;;
44850;SDS011;30583;48.714;9.386;2022-08-11T01:11:21;3.60;;;2.10;;
44850;SDS011;30583;48.714;9.386;2022-08-11T01:16:57;4.45;;;2.05;;
44850;SDS011;30583;48.714;9.386;2022-08-11T01:36:05;3.10;;;1.80;;
44850;SDS011;30583;48.714;9.386;2022-08-11T01:45:04;3.60;;;1.90;;
44850;SDS011;30583;48.714;9.386;2022-08-11T01:47:39;5.65;;;2.03;;
44850;SDS011;30583;48.714;9.386;2022-08-11T01:55:28;3.60;;;2.03;;
44850;SDS011;30583;48.714;9.386;2022-08-11T02:15:13;3.85;;;2.25;;
44850;SDS011;30583;48.714;9.386;2022-08-11T02:31:23;3.92;;;2.20;;
44850;SDS011;30583;48.714;9.386;2022-08-11T02:37:31;3.13;;;2.17;;
44850;SDS011;30583;48.714;9.386;2022-08-11T02:40:42;3.45;;;2.28;;
44850;SDS011;30583;48.714;9.386;2022-08-11T02:45:56;4.78;;;2.30;;
44850;SDS011;30583;48.714;9.386;2022-08-11T02:48:47;3.22;;;2.25;;
44850;SDS011;30583;48.714;9.386;2022-08-11T02:56:57;5.10;;;2.38;;
44850;SDS011;30583;48.714;9.386;2022-08-11T03:02:48;8.65;;;2.90;;
44850;SDS011;30583;48.714;9.386;2022-08-11T03:05:43;5.43;;;2.53;;
44850;SDS011;30583;48.714;9.386;2022-08-11T03:11:20;5.03;;;2.60;;
44850;SDS011;30583;48.714;9.386;2022-08-11T03:14:41;4.00;;;2.58;;
44850;SDS011;30583;48.714;9.386;2022-08-11T03:17:31;4.40;;;2.67;;
44850;SDS011;30583;48.714;9.386;2022-08-11T03:20:20;4.90;;;2.55;;
44850;SDS011;30583;48.714;9.386;2022-08-11T03:23:17;9.25;;;2.90;;
44850;SDS011;30583;48.714;9.386;2022-08-11T03:26:14;4.55;;;2.50;;
44850;SDS011;30583;48.714;9.386;2022-08-11T03:29:15;5.65;;;2.40;;
44850;SDS011;30583;48.714;9.386;2022-08-11T03:34:20;6.10;;;2.45;;
44850;SDS011;30583;48.714;9.386;2022-08-11T03:36:52;5.05;;;2.42;;
44850;SDS011;30583;48.714;9.386;2022-08-11T03:39:46;10.32;;;2.80;;
44850;SDS011;30583;48.714;9.386;2022-08-11T03:42:46;5.10;;;2.80;;
44850;SDS011;30583;48.714;9.386;2022-08-11T04:02:05;5.82;;;3.38;;
44850;SDS011;30583;48.714;9.386;2022-08-11T04:24:44;4.97;;;3.15;;
44850;SDS011;30583;48.714;9.386;2022-08-11T04:27:26;4.72;;;2.90;;
44850;SDS011;30583;48.714;9.386;2022-08-11T04:30:15;4.80;;;2.72;;
44850;SDS011;30583;48.714;9.386;2022-08-11T04:52:56;6.55;;;2.90;;
44850;SDS011;30583;48.714;9.386;2022-08-11T04:55:35;10.38;;;3.50;;
44850;SDS011;30583;48.714;9.386;2022-08-11T04:58:51;8.13;;;2.88;;
44850;SDS011;30583;48.714;9.386;2022-08-11T05:05:08;5.55;;;2.90;;
44850;SDS011;30583;48.714;9.386;2022-08-11T05:10:50;6.82;;;3.08;;
44850;SDS011;30583;48.714;9.386;2022-08-11T05:13:34;7.00;;;3.00;;
44850;SDS011;30583;48.714;9.386;2022-08-11T05:16:32;7.13;;;2.30;;
44850;SDS011;30583;48.714;9.386;2022-08-11T05:19:25;5.60;;;2.40;;
44850;SDS011;30583;48.714;9.386;2022-08-11T05:22:10;5.85;;;2.63;;
44850;SDS011;30583;48.714;9.386;2022-08-11T05:25:06;9.10;;;2.80;;
44850;SDS011;30583;48.714;9.386;2022-08-11T05:28:02;8.90;;;2.78;;
44850;SDS011;30583;48.714;9.386;2022-08-11T05:30:56;49.40;;;11.60;;
44850;SDS011;30583;48.714;9.386;2022-08-11T05:33:48;25.73;;;7.05;;
44850;SDS011;30583;48.714;9.386;2022-08-11T05:39:15;11.73;;;3.50;;
44850;SDS011;30583;48.714;9.386;2022-08-11T05:42:04;8.30;;;3.30;;
44850;SDS011;30583;48.714;9.386;2022-08-11T05:44:50;7.22;;;3.47;;
44850;SDS011;30583;48.714;9.386;2022-08-11T05:47:41;9.18;;;2.97;;
44850;SDS011;30583;48.714;9.386;2022-08-11T05:50:31;6.40;;;3.25;;
44850;SDS011;30583;48.714;9.386;2022-08-11T05:56:02;5.80;;;2.80;;
44850;SDS011;30583;48.714;9.386;2022-08-11T05:58:51;8.63;;;3.20;;
44850;SDS011;30583;48.714;9.386;2022-08-11T06:01:21;6.05;;;3.03;;
44850;SDS011;30583;48.714;9.386;2022-08-11T06:03:51;6.57;;;3.33;;
44850;SDS011;30583;48.714;9.386;2022-08-11T06:06:39;5.22;;;2.65;;
44850;SDS011;30583;48.714;9.386;2022-08-11T06:09:11;9.50;;;3.78;;
44850;SDS011;30583;48.714;9.386;2022-08-11T06:11:38;8.02;;;2.90;;
44850;SDS011;30583;48.714;9.386;2022-08-11T06:14:07;10.30;;;2.97;;
44850;SDS011;30583;48.714;9.386;2022-08-11T06:16:37;7.10;;;2.83;;
44850;SDS011;30583;48.714;9.386;2022-08-11T06:19:05;6.28;;;3.35;;
44850;SDS011;30583;48.714;9.386;2022-08-11T06:21:33;7.57;;;2.97;;
44850;SDS011;30583;48.714;9.386;2022-08-11T06:24:00;5.80;;;3.33;;
44850;SDS011;30583;48.714;9.386;2022-08-11T06:26:46;8.52;;;3.00;;
44850;SDS011;30583;48.714;9.386;2022-08-11T06:29:15;7.55;;;3.10;;
44850;SDS011;30583;48.714;9.386;2022-08-11T06:31:49;10.95;;;3.10;;
44850;SDS011;30583;48.714;9.386;2022-08-11T06:40:41;9.68;;;2.92;;
44850;SDS011;30583;48.714;9.386;2022-08-11T06:43:23;10.25;;;2.78;;
44850;SDS011;30583;48.714;9.386;2022-08-11T06:46:00;9.60;;;3.22;;
44850;SDS011;30583;48.714;9.386;2022-08-11T06:48:31;8.23;;;3.03;;
44850;SDS011;30583;48.714;9.386;2022-08-11T06:51:18;3.67;;;2.47;;
44850;SDS011;30583;48.714;9.386;2022-08-11T06:53:45;6.50;;;2.60;;
44850;SDS011;30583;48.714;9.386;2022-08-11T06:56:13;6.22;;;2.63;;
44850;SDS011;30583;48.714;9.386;2022-08-11T06:59:03;5.13;;;2.47;;
44850;SDS011;30583;48.714;9.386;2022-08-11T07:04:43;5.60;;;2.72;;
44850;SDS011;30583;48.714;9.386;2022-08-11T07:10:26;5.55;;;2.83;;
44850;SDS011;30583;48.714;9.386;2022-08-11T07:13:38;4.07;;;2.55;;
44850;SDS011;30583;48.714;9.386;2022-08-11T07:16:27;6.72;;;2.85;;
44850;SDS011;30583;48.714;9.386;2022-08-11T07:18:57;5.35;;;2.83;;
44850;SDS011;30583;48.714;9.386;2022-08-11T07:21:47;6.60;;;3.15;;
44850;SDS011;30583;48.714;9.386;2022-08-11T07:24:36;6.70;;;2.80;;
44850;SDS011;30583;48.714;9.386;2022-08-11T07:27:54;5.38;;;2.65;;
44850;SDS011;30583;48.714;9.386;2022-08-11T07:33:11;4.85;;;2.85;;
44850;SDS011;30583;48.714;9.386;2022-08-11T07:35:41;7.07;;;3.08;;
44850;SDS011;30583;48.714;9.386;2022-08-11T07:38:33;3.63;;;2.38;;
44850;SDS011;30583;48.714;9.386;2022-08-11T07:41:11;5.78;;;2.80;;
44850;SDS011;30583;48.714;9.386;2022-08-11T07:43:39;4.60;;;2.80;;
44850;SDS011;30583;48.714;9.386;2022-08-11T07:46:06;6.63;;;2.95;;
44850;SDS011;30583;48.714;9.386;2022-08-11T07:48:52;8.45;;;3.35;;
44850;SDS011;30583;48.714;9.386;2022-08-11T07:51:38;8.23;;;2.80;;
44850;SDS011;30583;48.714;9.386;2022-08-11T07:54:24;4.15;;;2.53;;
44850;SDS011;30583;48.714;9.386;2022-08-11T07:56:50;5.88;;;2.53;;
44850;SDS011;30583;48.714;9.386;2022-08-11T07:59:16;5.63;;;2.65;;
44850;SDS011;30583;48.714;9.386;2022-08-11T08:02:02;8.07;;;2.75;;
44850;SDS011;30583;48.714;9.386;2022-08-11T08:04:47;5.80;;;2.80;;
44850;SDS011;30583;48.714;9.386;2022-08-11T08:07:32;6.60;;;2.80;;
44850;SDS011;30583;48.714;9.386;2022-08-11T08:10:17;10.05;;;3.17;;
44850;SDS011;30583;48.714;9.386;2022-08-11T08:13:03;7.05;;;2.60;;
44850;SDS011;30583;48.714;9.386;2022-08-11T08:15:49;6.60;;;3.30;;
44850;SDS011;30583;48.714;9.386;2022-08-11T08:18:35;4.72;;;2.75;;
44850;SDS011;30583;48.714;9.386;2022-08-11T08:21:03;5.20;;;2.67;;
44850;SDS011;30583;48.714;9.386;2022-08-11T08:23:40;7.70;;;2.70;;
44850;SDS011;30583;48.714;9.386;2022-08-11T08:26:08;6.93;;;2.63;;
44850;SDS011;30583;48.714;9.386;2022-08-11T08:28:57;4.38;;;2.35;;
44850;SDS011;30583;48.714;9.386;2022-08-11T08:31:48;5.13;;;2.45;;
44850;SDS011;30583;48.714;9.386;2022-08-11T08:34:15;6.57;;;2.70;;
44850;SDS011;30583;48.714;9.386;2022-08-11T08:36:45;6.00;;;2.53;;
44850;SDS011;30583;48.714;9.386;2022-08-11T08:39:12;5.53;;;2.50;;
44850;SDS011;30583;48.714;9.386;2022-08-11T08:41:40;4.93;;;2.45;;
44850;SDS011;30583;48.714;9.386;2022-08-11T08:44:09;4.85;;;2.65;;
44850;SDS011;30583;48.714;9.386;2022-08-11T08:46:39;5.05;;;2.13;;
44850;SDS011;30583;48.714;9.386;2022-08-11T08:49:08;6.20;;;2.45;;
44850;SDS011;30583;48.714;9.386;2022-08-11T08:51:38;6.05;;;2.33;;
44850;SDS011;30583;48.714;9.386;2022-08-11T08:54:10;6.60;;;2.25;;
44850;SDS011;30583;48.714;9.386;2022-08-11T08:56:45;6.18;;;2.53;;
44850;SDS011;30583;48.714;9.386;2022-08-11T08:59:13;5.45;;;2.20;;
44850;SDS011;30583;48.714;9.386;2022-08-11T09:01:42;3.88;;;2.10;;
44850;SDS011;30583;48.714;9.386;2022-08-11T09:04:12;7.07;;;2.33;;
44850;SDS011;30583;48.714;9.386;2022-08-11T09:06:39;5.68;;;2.72;;
44850;SDS011;30583;48.714;9.386;2022-08-11T09:09:08;6.32;;;2.50;;
44850;SDS011;30583;48.714;9.386;2022-08-11T09:11:38;4.20;;;2.20;;
44850;SDS011;30583;48.714;9.386;2022-08-11T09:14:22;5.35;;;2.10;;
44850;SDS011;30583;48.714;9.386;2022-08-11T09:17:18;8.23;;;2.40;;
44850;SDS011;30583;48.714;9.386;2022-08-11T09:19:45;5.13;;;2.00;;
44850;SDS011;30583;48.714;9.386;2022-08-11T09:22:11;4.70;;;2.10;;
44850;SDS011;30583;48.714;9.386;2022-08-11T09:25:00;3.67;;;2.08;;
44850;SDS011;30583;48.714;9.386;2022-08-11T09:28:00;3.72;;;2.30;;
44850;SDS011;30583;48.714;9.386;2022-08-11T09:30:28;4.03;;;2.08;;
44850;SDS011;30583;48.714;9.386;2022-08-11T09:32:56;4.60;;;2.00;;
44850;SDS011;30583;48.714;9.386;2022-08-11T09:35:28;4.60;;;2.03;;
44850;SDS011;30583;48.714;9.386;2022-08-11T09:37:57;4.72;;;2.22;;
44850;SDS011;30583;48.714;9.386;2022-08-11T09:40:45;4.55;;;1.85;;
44850;SDS011;30583;48.714;9.386;2022-08-11T09:43:12;5.75;;;1.95;;
44850;SDS011;30583;48.714;9.386;2022-08-11T09:46:01;5.13;;;2.13;;
44850;SDS011;30583;48.714;9.386;2022-08-11T09:48:34;5.03;;;1.88;;
44850;SDS011;30583;48.714;9.386;2022-08-11T09:51:01;3.00;;;1.60;;
44850;SDS011;30583;48.714;9.386;2022-08-11T09:53:32;3.17;;;2.20;;
44850;SDS011;30583;48.714;9.386;2022-08-11T09:56:00;2.83;;;1.70;;
44850;SDS011;30583;48.714;9.386;2022-08-11T09:58:49;4.90;;;2.78;;
44850;SDS011;30583;48.714;9.386;2022-08-11T10:01:16;4.20;;;2.33;;
44850;SDS011;30583;48.714;9.386;2022-08-11T10:03:55;6.97;;;1.95;;
44850;SDS011;30583;48.714;9.386;2022-08-11T10:06:25;3.30;;;2.08;;
44850;SDS011;30583;48.714;9.386;2022-08-11T10:09:11;5.65;;;2.25;;
44850;SDS011;30583;48.714;9.386;2022-08-11T10:11:41;3.17;;;1.70;;
44850;SDS011;30583;48.714;9.386;2022-08-11T10:14:08;4.68;;;1.88;;
44850;SDS011;30583;48.714;9.386;2022-08-11T10:16:53;6.72;;;1.77;;
44850;SDS011;30583;48.714;9.386;2022-08-11T10:19:19;5.05;;;1.95;;
44850;SDS011;30583;48.714;9.386;2022-08-11T10:21:50;5.55;;;1.63;;
44850;SDS011;30583;48.714;9.386;2022-08-11T10:24:35;6.20;;;1.90;;
44850;SDS011;30583;48.714;9.386;2022-08-11T10:27:20;3.70;;;1.70;;
44850;SDS011;30583;48.714;9.386;2022-08-11T10:29:46;4.60;;;1.80;;
44850;SDS011;30583;48.714;9.386;2022-08-11T10:32:32;4.07;;;1.70;;
44850;SDS011;30583;48.714;9.386;2022-08-11T10:35:17;3.95;;;1.90;;
44850;SDS011;30583;48.714;9.386;2022-08-11T10:37:45;6.05;;;2.40;;
44850;SDS011;30583;48.714;9.386;2022-08-11T10:40:15;2.65;;;1.67;;
44850;SDS011;30583;48.714;9.386;2022-08-11T10:42:46;6.43;;;1.52;;
44850;SDS011;30583;48.714;9.386;2022-08-11T10:45:31;4.50;;;1.60;;
44850;SDS011;30583;48.714;9.386;2022-08-11T10:48:18;5.47;;;3.80;;
44850;SDS011;30583;48.714;9.386;2022-08-11T10:50:46;5.35;;;2.05;;
44850;SDS011;30583;48.714;9.386;2022-08-11T10:53:30;4.63;;;1.95;;
44850;SDS011;30583;48.714;9.386;2022-08-11T10:56:16;5.93;;;1.95;;
44850;SDS011;30583;48.714;9.386;2022-08-11T10:59:01;2.80;;;1.60;;
44850;SDS011;30583;48.714;9.386;2022-08-11T11:01:31;4.57;;;2.00;;
44850;SDS011;30583;48.714;9.386;2022-08-11T11:03:59;3.55;;;1.45;;
44850;SDS011;30583;48.714;9.386;2022-08-11T11:06:32;5.68;;;1.77;;
44850;SDS011;30583;48.714;9.386;2022-08-11T11:09:04;3.58;;;1.70;;
44850;SDS011;30583;48.714;9.386;2022-08-11T11:11:36;2.88;;;1.70;;
44850;SDS011;30583;48.714;9.386;2022-08-11T11:14:26;4.20;;;2.22;;
44850;SDS011;30583;48.714;9.386;2022-08-11T11:17:13;4.32;;;1.90;;
44850;SDS011;30583;48.714;9.386;2022-08-11T11:20:01;4.90;;;1.70;;
44850;SDS011;30583;48.714;9.386;2022-08-11T11:22:29;3.63;;;1.55;;
44850;SDS011;30583;48.714;9.386;2022-08-11T11:25:19;4.50;;;1.60;;
44850;SDS011;30583;48.714;9.386;2022-08-11T11:27:53;3.03;;;1.55;;
44850;SDS011;30583;48.714;9.386;2022-08-11T11:30:44;4.15;;;1.80;;
44850;SDS011;30583;48.714;9.386;2022-08-11T11:33:27;3.90;;;1.80;;
44850;SDS011;30583;48.714;9.386;2022-08-11T11:36:11;5.15;;;1.90;;
44850;SDS011;30583;48.714;9.386;2022-08-11T11:38:45;3.25;;;1.58;;
44850;SDS011;30583;48.714;9.386;2022-08-11T11:41:11;4.53;;;1.80;;
44850;SDS011;30583;48.714;9.386;2022-08-11T11:43:49;2.58;;;1.27;;
44850;SDS011;30583;48.714;9.386;2022-08-11T11:46:20;4.00;;;1.50;;
44850;SDS011;30583;48.714;9.386;2022-08-11T11:48:46;4.35;;;1.48;;
44850;SDS011;30583;48.714;9.386;2022-08-11T11:51:12;4.95;;;1.67;;
44850;SDS011;30583;48.714;9.386;2022-08-11T11:53:41;4.85;;;1.60;;
44850;SDS011;30583;48.714;9.386;2022-08-11T11:56:09;2.03;;;1.45;;
44850;SDS011;30583;48.714;9.386;2022-08-11T11:58:36;6.20;;;1.73;;
44850;SDS011;30583;48.714;9.386;2022-08-11T12:01:22;2.97;;;1.58;;
44850;SDS011;30583;48.714;9.386;2022-08-11T12:03:49;2.85;;;1.60;;
44850;SDS011;30583;48.714;9.386;2022-08-11T12:06:17;2.50;;;1.70;;
44850;SDS011;30583;48.714;9.386;2022-08-11T12:08:46;5.88;;;1.90;;
44850;SDS011;30583;48.714;9.386;2022-08-11T12:11:14;3.30;;;1.70;;
44850;SDS011;30583;48.714;9.386;2022-08-11T12:13:59;6.50;;;2.15;;
44850;SDS011;30583;48.714;9.386;2022-08-11T12:16:27;3.92;;;1.73;;
44850;SDS011;30583;48.714;9.386;2022-08-11T12:19:00;3.38;;;1.50;;
44850;SDS011;30583;48.714;9.386;2022-08-11T12:21:28;4.50;;;2.35;;
44850;SDS011;30583;48.714;9.386;2022-08-11T12:23:55;2.80;;;1.70;;
44850;SDS011;30583;48.714;9.386;2022-08-11T12:26:42;4.95;;;1.77;;
44850;SDS011;30583;48.714;9.386;2022-08-11T12:29:27;3.17;;;1.60;;
44850;SDS011;30583;48.714;9.386;2022-08-11T12:31:53;5.30;;;1.80;;
44850;SDS011;30583;48.714;9.386;2022-08-11T12:34:20;2.63;;;1.52;;
44850;SDS011;30583;48.714;9.386;2022-08-11T12:36:58;3.17;;;1.75;;
44850;SDS011;30583;48.714;9.386;2022-08-11T12:39:27;10.00;;;1.95;;
44850;SDS011;30583;48.714;9.386;2022-08-11T12:42:19;4.47;;;1.95;;
44850;SDS011;30583;48.714;9.386;2022-08-11T12:45:10;2.95;;;1.40;;
44850;SDS011;30583;48.714;9.386;2022-08-11T12:47:56;4.53;;;1.45;;
44850;SDS011;30583;48.714;9.386;2022-08-11T12:50:42;2.53;;;1.50;;
44850;SDS011;30583;48.714;9.386;2022-08-11T12:53:30;3.60;;;1.92;;
44850;SDS011;30583;48.714;9.386;2022-08-11T12:55:59;6.03;;;3.35;;
44850;SDS011;30583;48.714;9.386;2022-08-11T12:58:48;2.60;;;1.63;;
44850;SDS011;30583;48.714;9.386;2022-08-11T13:01:15;2.72;;;1.58;;
44850;SDS011;30583;48.714;9.386;2022-08-11T13:04:00;3.92;;;1.48;;
44850;SDS011;30583;48.714;9.386;2022-08-11T13:06:45;2.72;;;1.52;;
44850;SDS011;30583;48.714;9.386;2022-08-11T13:09:10;3.00;;;1.30;;
44850;SDS011;30583;48.714;9.386;2022-08-11T13:11:37;5.20;;;1.95;;
44850;SDS011;30583;48.714;9.386;2022-08-11T13:14:22;5.90;;;1.50;;
44850;SDS011;30583;48.714;9.386;2022-08-11T13:16:49;2.85;;;1.48;;
44850;SDS011;30583;48.714;9.386;2022-08-11T13:19:34;3.65;;;1.67;;
44850;SDS011;30583;48.714;9.386;2022-08-11T13:22:00;4.35;;;1.30;;
44850;SDS011;30583;48.714;9.386;2022-08-11T13:24:29;3.92;;;1.58;;
44850;SDS011;30583;48.714;9.386;2022-08-11T13:26:58;4.85;;;1.70;;
44850;SDS011;30583;48.714;9.386;2022-08-11T13:29:25;3.35;;;1.60;;
44850;SDS011;30583;48.714;9.386;2022-08-11T13:31:53;3.78;;;1.77;;
44850;SDS011;30583;48.714;9.386;2022-08-11T13:34:20;4.35;;;1.40;;
44850;SDS011;30583;48.714;9.386;2022-08-11T13:36:52;4.63;;;1.60;;
44850;SDS011;30583;48.714;9.386;2022-08-11T13:39:29;4.90;;;1.90;;
44850;SDS011;30583;48.714;9.386;2022-08-11T13:41:56;4.28;;;1.50;;
44850;SDS011;30583;48.714;9.386;2022-08-11T13:44:28;3.38;;;1.35;;
44850;SDS011;30583;48.714;9.386;2022-08-11T13:46:58;3.95;;;1.48;;
44850;SDS011;30583;48.714;9.386;2022-08-11T13:49:28;2.80;;;1.30;;
44850;SDS011;30583;48.714;9.386;2022-08-11T13:51:55;3.58;;;1.30;;
44850;SDS011;30583;48.714;9.386;2022-08-11T13:54:26;4.63;;;1.45;;
44850;SDS011;30583;48.714;9.386;2022-08-11T13:56:56;3.70;;;1.37;;
44850;SDS011;30583;48.714;9.386;2022-08-11T13:59:25;1.60;;;1.20;;
44850;SDS011;30583;48.714;9.386;2022-08-11T14:01:54;3.60;;;1.30;;
44850;SDS011;30583;48.714;9.386;2022-08-11T14:04:36;1.98;;;1.48;;
44850;SDS011;30583;48.714;9.386;2022-08-11T14:07:08;3.42;;;1.50;;
44850;SDS011;30583;48.714;9.386;2022-08-11T14:09:36;3.65;;;1.35;;
44850;SDS011;30583;48.714;9.386;2022-08-11T14:12:25;2.22;;;1.33;;
44850;SDS011;30583;48.714;9.386;2022-08-11T14:15:15;8.00;;;1.40;;
44850;SDS011;30583;48.714;9.386;2022-08-11T14:17:50;6.20;;;1.48;;
44850;SDS011;30583;48.714;9.386;2022-08-11T14:20:38;2.95;;;1.52;;
44850;SDS011;30583;48.714;9.386;2022-08-11T14:23:29;3.72;;;1.48;;
44850;SDS011;30583;48.714;9.386;2022-08-11T14:25:59;3.08;;;1.27;;
44850;SDS011;30583;48.714;9.386;2022-08-11T14:28:44;2.70;;;1.25;;
44850;SDS011;30583;48.714;9.386;2022-08-11T14:31:12;3.90;;;1.10;;
44850;SDS011;30583;48.714;9.386;2022-08-11T14:33:39;3.50;;;1.50;;
44850;SDS011;30583;48.714;9.386;2022-08-11T14:36:05;5.55;;;1.70;;
44850;SDS011;30583;48.714;9.386;2022-08-11T14:38:34;4.05;;;1.30;;
44850;SDS011;30583;48.714;9.386;2022-08-11T14:41:00;2.78;;;1.20;;
44850;SDS011;30583;48.714;9.386;2022-08-11T14:43:45;3.47;;;1.30;;
44850;SDS011;30583;48.714;9.386;2022-08-11T14:46:31;5.95;;;1.45;;
44850;SDS011;30583;48.714;9.386;2022-08-11T14:49:16;3.45;;;1.30;;
44850;SDS011;30583;48.714;9.386;2022-08-11T14:51:43;3.45;;;1.45;;
44850;SDS011;30583;48.714;9.386;2022-08-11T14:54:12;3.92;;;1.80;;
44850;SDS011;30583;48.714;9.386;2022-08-11T14:56:57;2.88;;;1.40;;
44850;SDS011;30583;48.714;9.386;2022-08-11T14:59:24;3.05;;;1.58;;
44850;SDS011;30583;48.714;9.386;2022-08-11T15:01:50;6.28;;;1.40;;
44850;SDS011;30583;48.714;9.386;2022-08-11T15:04:35;3.47;;;1.50;;
44850;SDS011;30583;48.714;9.386;2022-08-11T15:07:02;5.20;;;1.50;;
44850;SDS011;30583;48.714;9.386;2022-08-11T15:09:28;3.85;;;1.52;;
44850;SDS011;30583;48.714;9.386;2022-08-11T15:11:54;1.95;;;1.27;;
44850;SDS011;30583;48.714;9.386;2022-08-11T15:14:32;3.38;;;1.67;;
44850;SDS011;30583;48.714;9.386;2022-08-11T15:17:17;3.97;;;1.40;;
44850;SDS011;30583;48.714;9.386;2022-08-11T15:19:45;2.95;;;1.42;;
44850;SDS011;30583;48.714;9.386;2022-08-11T15:22:31;5.35;;;1.45;;
44850;SDS011;30583;48.714;9.386;2022-08-11T15:25:16;4.43;;;1.50;;
44850;SDS011;30583;48.714;9.386;2022-08-11T15:27:44;9.27;;;1.45;;
44850;SDS011;30583;48.714;9.386;2022-08-11T15:30:32;5.22;;;1.80;;
44850;SDS011;30583;48.714;9.386;2022-08-11T15:33:17;3.75;;;1.50;;
44850;SDS011;30583;48.714;9.386;2022-08-11T15:36:04;3.05;;;1.65;;
44850;SDS011;30583;48.714;9.386;2022-08-11T15:38:57;3.00;;;1.30;;
44850;SDS011;30583;48.714;9.386;2022-08-11T15:41:32;2.53;;;1.13;;
44850;SDS011;30583;48.714;9.386;2022-08-11T15:44:22;4.68;;;1.55;;
44850;SDS011;30583;48.714;9.386;2022-08-11T15:47:14;1.98;;;1.17;;
44850;SDS011;30583;48.714;9.386;2022-08-11T15:49:43;2.92;;;1.77;;
44850;SDS011;30583;48.714;9.386;2022-08-11T15:52:15;2.95;;;1.70;;
44850;SDS011;30583;48.714;9.386;2022-08-11T15:54:45;3.45;;;1.50;;
44850;SDS011;30583;48.714;9.386;2022-08-11T15:57:12;4.93;;;1.38;;
44850;SDS011;30583;48.714;9.386;2022-08-11T16:00:00;4.63;;;1.60;;
44850;SDS011;30583;48.714;9.386;2022-08-11T16:02:47;3.30;;;1.40;;
44850;SDS011;30583;48.714;9.386;2022-08-11T16:05:34;3.28;;;1.35;;
44850;SDS011;30583;48.714;9.386;2022-08-11T16:08:02;2.47;;;1.27;;
44850;SDS011;30583;48.714;9.386;2022-08-11T16:10:28;5.28;;;1.30;;
44850;SDS011;30583;48.714;9.386;2022-08-11T16:13:02;2.83;;;1.38;;
44850;SDS011;30583;48.714;9.386;2022-08-11T16:15:31;2.33;;;1.30;;
44850;SDS011;30583;48.714;9.386;2022-08-11T16:18:19;3.85;;;1.50;;
44850;SDS011;30583;48.714;9.386;2022-08-11T16:20:49;4.68;;;1.67;;
44850;SDS011;30583;48.714;9.386;2022-08-11T16:23:19;5.45;;;1.60;;
44850;SDS011;30583;48.714;9.386;2022-08-11T16:25:50;4.38;;;1.30;;
44850;SDS011;30583;48.714;9.386;2022-08-11T16:28:19;5.90;;;1.80;;
44850;SDS011;30583;48.714;9.386;2022-08-11T16:30:47;2.08;;;1.38;;
44850;SDS011;30583;48.714;9.386;2022-08-11T16:33:13;3.25;;;1.40;;
44850;SDS011;30583;48.714;9.386;2022-08-11T16:35:40;3.08;;;1.33;;
44850;SDS011;30583;48.714;9.386;2022-08-11T16:38:27;5.93;;;1.35;;
44850;SDS011;30583;48.714;9.386;2022-08-11T16:41:10;2.53;;;1.30;;
44850;SDS011;30583;48.714;9.386;2022-08-11T16:44:05;4.68;;;1.40;;
44850;SDS011;30583;48.714;9.386;2022-08-11T16:46:52;14.43;;;1.98;;
44850;SDS011;30583;48.714;9.386;2022-08-11T16:49:30;3.03;;;1.63;;
44850;SDS011;30583;48.714;9.386;2022-08-11T16:52:01;4.00;;;1.58;;
44850;SDS011;30583;48.714;9.386;2022-08-11T16:54:32;4.63;;;1.50;;
44850;SDS011;30583;48.714;9.386;2022-08-11T16:56:59;2.90;;;1.30;;
44850;SDS011;30583;48.714;9.386;2022-08-11T16:59:48;2.80;;;1.30;;
44850;SDS011;30583;48.714;9.386;2022-08-11T17:02:16;4.35;;;1.33;;
44850;SDS011;30583;48.714;9.386;2022-08-11T17:05:02;4.25;;;1.25;;
44850;SDS011;30583;48.714;9.386;2022-08-11T17:07:52;2.92;;;1.40;;
44850;SDS011;30583;48.714;9.386;2022-08-11T17:10:39;4.22;;;1.55;;
44850;SDS011;30583;48.714;9.386;2022-08-11T17:13:31;2.38;;;1.30;;
44850;SDS011;30583;48.714;9.386;2022-08-11T17:16:04;4.18;;;1.50;;
44850;SDS011;30583;48.714;9.386;2022-08-11T17:18:32;3.38;;;1.45;;
44850;SDS011;30583;48.714;9.386;2022-08-11T17:21:05;3.47;;;1.70;;
44850;SDS011;30583;48.714;9.386;2022-08-11T17:23:37;2.85;;;1.60;;
44850;SDS011;30583;48.714;9.386;2022-08-11T17:26:24;4.20;;;1.60;;
44850;SDS011;30583;48.714;9.386;2022-08-11T17:29:17;3.47;;;1.20;;
44850;SDS011;30583;48.714;9.386;2022-08-11T17:31:47;2.13;;;1.48;;
44850;SDS011;30583;48.714;9.386;2022-08-11T17:34:32;3.78;;;1.52;;
44850;SDS011;30583;48.714;9.386;2022-08-11T17:37:17;4.10;;;1.33;;
44850;SDS011;30583;48.714;9.386;2022-08-11T17:39:45;2.53;;;1.40;;
44850;SDS011;30583;48.714;9.386;2022-08-11T17:42:12;4.57;;;1.90;;
44850;SDS011;30583;48.714;9.386;2022-08-11T17:44:58;5.20;;;1.50;;
44850;SDS011;30583;48.714;9.386;2022-08-11T17:47:44;4.80;;;1.63;;
44850;SDS011;30583;48.714;9.386;2022-08-11T17:50:29;2.42;;;1.33;;
44850;SDS011;30583;48.714;9.386;2022-08-11T17:52:56;4.50;;;1.40;;
44850;SDS011;30583;48.714;9.386;2022-08-11T17:55:42;3.72;;;1.35;;
44850;SDS011;30583;48.714;9.386;2022-08-11T17:58:29;3.30;;;1.30;;
44850;SDS011;30583;48.714;9.386;2022-08-11T18:01:14;3.45;;;1.17;;
44850;SDS011;30583;48.714;9.386;2022-08-11T18:03:42;4.53;;;1.60;;
44850;SDS011;30583;48.714;9.386;2022-08-11T18:06:09;3.00;;;1.25;;
44850;SDS011;30583;48.714;9.386;2022-08-11T18:08:38;3.38;;;1.33;;
44850;SDS011;30583;48.714;9.386;2022-08-11T18:11:26;2.97;;;1.38;;
44850;SDS011;30583;48.714;9.386;2022-08-11T18:14:12;4.40;;;1.80;;
44850;SDS011;30583;48.714;9.386;2022-08-11T18:16:57;5.22;;;1.60;;
44850;SDS011;30583;48.714;9.386;2022-08-11T18:19:42;4.28;;;1.63;;
44850;SDS011;30583;48.714;9.386;2022-08-11T18:22:35;5.53;;;1.40;;
44850;SDS011;30583;48.714;9.386;2022-08-11T18:25:24;5.13;;;1.73;;
44850;SDS011;30583;48.714;9.386;2022-08-11T18:28:11;4.82;;;2.20;;
44850;SDS011;30583;48.714;9.386;2022-08-11T18:30:58;4.10;;;1.90;;
44850;SDS011;30583;48.714;9.386;2022-08-11T18:33:55;4.53;;;2.03;;
44850;SDS011;30583;48.714;9.386;2022-08-11T18:37:00;3.92;;;2.15;;
44850;SDS011;30583;48.714;9.386;2022-08-11T18:39:54;4.70;;;1.88;;
44850;SDS011;30583;48.714;9.386;2022-08-11T18:42:41;2.72;;;1.65;;
44850;SDS011;30583;48.714;9.386;2022-08-11T18:45:27;3.58;;;1.50;;
44850;SDS011;30583;48.714;9.386;2022-08-11T18:48:12;3.10;;;1.60;;
44850;SDS011;30583;48.714;9.386;2022-08-11T18:51:00;3.17;;;1.77;;
44850;SDS011;30583;48.714;9.386;2022-08-11T18:53:48;3.60;;;2.00;;
44850;SDS011;30583;48.714;9.386;2022-08-11T18:56:35;2.95;;;1.90;;
44850;SDS011;30583;48.714;9.386;2022-08-11T18:59:20;3.15;;;1.95;;
44850;SDS011;30583;48.714;9.386;2022-08-11T19:02:09;4.68;;;2.03;;
44850;SDS011;30583;48.714;9.386;2022-08-11T19:04:55;4.13;;;2.03;;
44850;SDS011;30583;48.714;9.386;2022-08-11T19:07:42;4.07;;;2.13;;